createdAt,value
2023-12-19T00:01:39.756Z,101237.88
2023-12-19T00:04:08.099Z,101263.84
2023-12-19T00:06:36.481Z,101241.25
2023-12-19T00:09:05.241Z,101248.25
2023-12-19T00:11:34.829Z,101251.63
2023-12-19T00:14:03.242Z,101251.53
2023-12-19T00:16:33.875Z,101225.38
2023-12-19T00:19:02.353Z,101227.03
2023-12-19T00:21:30.730Z,101236.47
2023-12-19T00:23:59.023Z,101245.84
2023-12-19T00:26:27.362Z,101232.75
2023-12-19T00:28:55.670Z,101227.56
2023-12-19T00:31:24.414Z,101212.66
2023-12-19T00:34:42.944Z,101225.66
2023-12-19T00:37:14.051Z,101223.88
2023-12-19T00:39:42.442Z,101235.94
2023-12-19T00:42:10.796Z,101219.38
2023-12-19T00:45:06.605Z,101217.69
2023-12-19T00:47:35.882Z,101214.06
2023-12-19T00:50:06.230Z,101215.78
2023-12-19T00:52:36.059Z,101217.47
2023-12-19T00:55:04.912Z,101220.09
2023-12-19T00:57:34.570Z,101214.06
2023-12-19T01:00:03.560Z,101207.88
2023-12-19T01:02:32.506Z,101213.19
2023-12-19T01:05:00.918Z,101226.94
2023-12-19T01:07:29.308Z,101225.28
2023-12-19T01:09:58.907Z,101224.47
2023-12-19T01:12:27.176Z,101217.56
2023-12-19T01:14:55.397Z,101212.28
2023-12-19T01:17:23.657Z,101208.88
2023-12-19T01:19:51.945Z,101192.41
2023-12-19T01:22:20.312Z,101195.78
2023-12-19T01:24:48.556Z,101183.59
2023-12-19T01:27:18.301Z,101190.50
2023-12-19T01:29:46.693Z,101177.53
2023-12-19T01:32:15.470Z,101159.34
2023-12-19T01:34:43.735Z,101163.66
2023-12-19T01:37:12.166Z,101168.84
2023-12-19T01:39:40.518Z,101170.50
2023-12-19T01:42:09.067Z,101171.44
2023-12-19T01:44:38.745Z,101163.53
2023-12-19T01:47:07.013Z,101160.13
2023-12-19T01:49:35.489Z,101160.13
2023-12-19T01:52:03.945Z,101161.81
2023-12-19T01:54:32.669Z,101150.66
2023-12-19T01:57:00.977Z,101158.34
2023-12-19T01:59:30.404Z,101161.81
2023-12-19T02:02:00.076Z,101153.16
2023-12-19T02:04:28.489Z,101160.81
2023-12-19T02:06:56.830Z,101147.06
2023-12-19T02:09:25.201Z,101145.94
2023-12-19T02:11:53.546Z,101147.75
2023-12-19T02:14:21.936Z,101144.34
2023-12-19T02:16:50.154Z,101138.25
2023-12-19T02:19:19.737Z,101139.16
2023-12-19T02:21:48.790Z,101140.97
2023-12-19T02:24:19.520Z,101136.66
2023-12-19T02:26:48.030Z,101130.59
2023-12-19T02:29:16.261Z,101119.38
2023-12-19T02:31:45.160Z,101112.47
2023-12-19T02:34:13.555Z,101117.69
2023-12-19T02:36:41.898Z,101118.56
2023-12-19T02:39:11.923Z,101098.72
2023-12-19T02:41:41.698Z,101103.97
2023-12-19T02:44:10.021Z,101100.50
2023-12-19T02:46:38.567Z,101093.69
2023-12-19T02:49:07.062Z,101094.59
2023-12-19T02:51:35.404Z,101093.78
2023-12-19T02:54:03.724Z,101076.53
2023-12-19T02:56:33.182Z,101074.81
2023-12-19T02:59:02.952Z,101060.22
2023-12-19T03:01:31.375Z,101060.22
2023-12-19T03:03:59.891Z,101058.59
2023-12-19T03:06:28.262Z,101059.50
2023-12-19T03:08:58.642Z,101057.00
2023-12-19T03:11:27.177Z,101050.00
2023-12-19T03:18:52.359Z,101038.91
2023-12-19T03:24:32.001Z,101026.91
2023-12-19T03:27:00.264Z,101022.63
2023-12-19T03:29:29.529Z,101021.72
2023-12-19T03:31:57.976Z,101018.13
2023-12-19T03:34:27.789Z,101025.94
2023-12-19T03:36:57.796Z,101023.31
2023-12-19T03:39:27.016Z,101023.31
2023-12-19T03:42:39.015Z,101030.84
2023-12-19T03:46:02.660Z,101026.81
2023-12-19T03:49:21.565Z,101039.91
2023-12-19T03:51:51.401Z,101030.31
2023-12-19T03:54:19.631Z,101033.81
2023-12-19T03:56:47.793Z,101027.81
2023-12-19T03:59:16.024Z,101019.19
2023-12-19T04:01:45.772Z,101016.72
2023-12-19T04:04:14.826Z,101021.91
2023-12-19T04:06:44.955Z,101006.31
2023-12-19T04:09:14.948Z,101000.22
2023-12-19T04:11:47.958Z,100996.81
2023-12-19T04:14:16.515Z,100992.44
2023-12-19T04:16:45.065Z,100992.63
2023-12-19T04:19:13.929Z,100982.22
2023-12-19T04:21:42.227Z,100983.09
2023-12-19T04:24:11.763Z,100969.22
2023-12-19T04:26:42.914Z,100961.56
2023-12-19T04:29:11.403Z,100956.38
2023-12-19T04:31:39.651Z,100952.06
2023-12-19T04:34:07.922Z,100941.69
2023-12-19T04:36:36.306Z,100933.94
2023-12-19T04:39:04.710Z,100934.88
2023-12-19T04:41:34.421Z,100927.16
2023-12-19T04:44:03.909Z,100935.06
2023-12-19T04:46:32.063Z,100930.63
2023-12-19T04:49:00.582Z,100923.78
2023-12-19T04:51:28.816Z,100928.97
2023-12-19T04:53:57.375Z,100929.91
2023-12-19T04:56:25.569Z,100928.25
2023-12-19T04:58:54.111Z,100943.00
2023-12-19T05:01:23.705Z,100945.63
2023-12-19T05:03:51.001Z,100950.63
2023-12-19T05:06:19.719Z,100931.63
2023-12-19T05:08:49.051Z,100913.44
2023-12-19T05:11:17.297Z,100910.06
2023-12-19T05:13:45.462Z,100910.06
2023-12-19T05:16:14.830Z,100909.25
2023-12-19T05:18:45.490Z,100907.53
2023-12-19T05:21:14.506Z,100901.44
2023-12-19T05:23:43.175Z,100891.16
2023-12-19T05:26:11.389Z,100889.44
2023-12-19T05:28:41.289Z,100886.03
2023-12-19T05:31:11.023Z,100882.53
2023-12-19T05:33:39.654Z,100866.06
2023-12-19T05:36:13.334Z,100866.06
2023-12-19T05:38:41.541Z,100857.44
2023-12-19T05:41:10.700Z,100852.25
2023-12-19T05:43:38.853Z,100846.25
2023-12-19T05:46:07.025Z,100848.84
2023-12-19T05:48:35.443Z,100860.97
2023-12-19T05:51:04.700Z,100861.84
2023-12-19T05:53:34.201Z,100860.25
2023-12-19T05:56:02.343Z,100849.03
2023-12-19T05:58:30.504Z,100846.41
2023-12-19T06:00:58.714Z,100842.22
2023-12-19T06:03:27.000Z,100837.00
2023-12-19T06:05:55.297Z,100844.16
2023-12-19T06:08:24.329Z,100849.34
2023-12-19T06:10:55.514Z,100843.44
2023-12-19T06:13:25.127Z,100849.56
2023-12-19T06:15:53.380Z,100860.00
2023-12-19T06:18:21.770Z,100847.91
2023-12-19T06:20:49.982Z,100854.09
2023-12-19T06:23:18.181Z,100858.50
2023-12-19T06:25:46.335Z,100866.38
2023-12-19T06:28:18.019Z,100877.69
2023-12-19T06:30:46.317Z,100875.09
2023-12-19T06:33:14.661Z,100869.06
2023-12-19T06:35:45.940Z,100860.38
2023-12-19T06:38:14.112Z,100853.47
2023-12-19T06:40:42.382Z,100855.25
2023-12-19T06:43:11.779Z,100859.66
2023-12-19T06:45:41.611Z,100857.06
2023-12-19T06:48:09.861Z,100850.03
2023-12-19T06:50:40.296Z,100850.97
2023-12-19T06:53:08.436Z,100844.84
2023-12-19T06:55:36.604Z,100842.34
2023-12-19T06:58:05.155Z,100838.91
2023-12-19T07:00:33.567Z,100828.53
2023-12-19T07:03:03.196Z,100826.91
2023-12-19T07:05:31.417Z,100822.59
2023-12-19T07:07:59.621Z,100823.59
2023-12-19T07:10:28.709Z,100830.66
2023-12-19T07:12:56.875Z,100815.88
2023-12-19T07:15:25.087Z,100800.34
2023-12-19T07:17:53.327Z,100807.34
2023-12-19T07:20:22.904Z,100809.13
2023-12-19T07:22:51.043Z,100798.84
2023-12-19T07:25:19.296Z,100802.41
2023-12-19T07:27:47.460Z,100802.47
2023-12-19T07:30:15.849Z,100806.06
2023-12-19T07:32:44.275Z,100797.47
2023-12-19T07:35:14.639Z,100791.44
2023-12-19T07:37:44.220Z,100787.22
2023-12-19T07:40:13.738Z,100787.28
2023-12-19T07:42:42.784Z,100796.00
2023-12-19T07:45:11.510Z,100797.78
2023-12-19T07:47:39.693Z,100801.38
2023-12-19T07:50:11.614Z,100797.06
2023-12-19T07:52:40.004Z,100796.22
2023-12-19T07:55:11.684Z,100792.00
2023-12-19T07:57:40.651Z,100779.00
2023-12-19T08:00:10.374Z,100781.72
2023-12-19T08:02:43.923Z,100778.28
2023-12-19T08:05:13.324Z,100776.56
2023-12-19T08:07:41.622Z,100767.97
2023-12-19T08:10:11.570Z,100774.94
2023-12-19T08:12:40.483Z,100785.44
2023-12-19T08:15:11.009Z,100772.53
2023-12-19T08:17:40.463Z,100776.03
2023-12-19T08:20:11.520Z,100769.09
2023-12-19T08:22:39.718Z,100784.81
2023-12-19T08:25:09.876Z,100774.41
2023-12-19T08:27:39.558Z,100782.28
2023-12-19T08:30:09.560Z,100779.75
2023-12-19T08:32:37.967Z,100787.56
2023-12-19T08:35:07.482Z,100776.34
2023-12-19T08:37:36.806Z,100768.63
2023-12-19T08:40:05.775Z,100759.09
2023-12-19T08:42:34.044Z,100754.88
2023-12-19T08:45:03.966Z,100749.75
2023-12-19T08:47:32.136Z,100740.25
2023-12-19T08:50:00.561Z,100726.41
2023-12-19T08:52:29.223Z,100728.19
2023-12-19T08:54:57.559Z,100723.00
2023-12-19T08:57:25.836Z,100724.88
2023-12-19T08:59:54.053Z,100723.22
2023-12-19T09:02:23.565Z,100720.72
2023-12-19T09:04:55.280Z,100712.19
2023-12-19T09:07:24.091Z,100724.31
2023-12-19T09:09:55.510Z,100727.88
2023-12-19T09:12:23.832Z,100718.41
2023-12-19T09:14:52.619Z,100725.44
2023-12-19T09:17:20.765Z,100726.41
2023-12-19T09:19:50.402Z,100723.81
2023-12-19T09:22:18.636Z,100709.97
2023-12-19T09:24:46.786Z,100711.75
2023-12-19T09:27:15.205Z,100697.94
2023-12-19T09:29:43.358Z,100699.69
2023-12-19T09:32:13.160Z,100695.38
2023-12-19T09:34:41.946Z,100691.09
2023-12-19T09:37:11.533Z,100698.06
2023-12-19T09:39:39.872Z,100698.16
2023-12-19T09:42:09.288Z,100681.72
2023-12-19T09:44:37.558Z,100667.00
2023-12-19T09:47:06.195Z,100671.41
2023-12-19T09:49:40.536Z,100680.97
2023-12-19T09:52:13.308Z,100670.56
2023-12-19T09:54:42.431Z,100675.03
2023-12-19T09:57:13.279Z,100682.84
2023-12-19T09:59:51.463Z,100672.53
2023-12-19T10:02:22.571Z,100661.28
2023-12-19T10:04:50.810Z,100656.06
2023-12-19T10:07:20.691Z,100660.41
2023-12-19T10:09:54.680Z,100670.81
2023-12-19T10:12:23.406Z,100671.69
2023-12-19T10:14:52.121Z,100673.41
2023-12-19T10:17:20.307Z,100660.31
2023-12-19T10:19:48.717Z,100660.31
2023-12-19T10:22:22.332Z,100653.31
2023-12-19T10:24:53.695Z,100644.69
2023-12-19T10:27:24.641Z,100650.81
2023-12-19T10:29:52.955Z,100641.28
2023-12-19T10:32:21.304Z,100636.13
2023-12-19T10:34:57.388Z,100631.75
2023-12-19T10:37:39.783Z,100619.72
2023-12-19T10:40:13.276Z,100606.75
2023-12-19T10:42:41.565Z,100602.38
2023-12-19T10:45:10.733Z,100600.75
2023-12-19T10:47:39.742Z,100592.94
2023-12-19T10:50:08.852Z,100584.31
2023-12-19T10:52:39.750Z,100589.50
2023-12-19T10:55:17.786Z,100590.34
2023-12-19T10:57:52.297Z,100588.53
2023-12-19T11:00:24.189Z,100586.84
2023-12-19T11:03:06.290Z,100575.53
2023-12-19T11:05:41.745Z,100566.91
2023-12-19T11:08:14.903Z,100569.50
2023-12-19T11:10:46.647Z,100568.69
2023-12-19T11:13:15.049Z,100568.69
2023-12-19T11:15:49.528Z,100568.69
2023-12-19T11:18:23.742Z,100548.00
2023-12-19T11:21:00.520Z,100554.13
2023-12-19T11:23:40.246Z,100542.00
2023-12-19T11:26:12.621Z,100532.53
2023-12-19T11:28:41.996Z,100529.09
2023-12-19T11:31:31.889Z,100526.50
2023-12-19T11:34:03.006Z,100527.47
2023-12-19T11:36:31.502Z,100515.44
2023-12-19T11:39:27.013Z,100524.22
2023-12-19T11:41:56.456Z,100519.03
2023-12-19T11:44:38.342Z,100515.66
2023-12-19T11:47:16.743Z,100512.13
2023-12-19T11:49:45.597Z,100504.47
2023-12-19T11:52:33.732Z,100510.56
2023-12-19T11:55:05.115Z,100489.78
2023-12-19T11:57:34.455Z,100475.13
2023-12-19T12:00:03.662Z,100483.91
2023-12-19T12:02:40.511Z,100479.53
2023-12-19T12:05:14.622Z,100477.91
2023-12-19T12:07:48.674Z,100470.09
2023-12-19T12:10:21.682Z,100462.28
2023-12-19T12:12:50.412Z,100457.06
2023-12-19T12:15:20.418Z,100465.81
2023-12-19T12:17:49.024Z,100455.41
2023-12-19T12:20:17.778Z,100445.94
2023-12-19T12:22:46.114Z,100446.81
2023-12-19T12:25:14.538Z,100444.31
2023-12-19T12:27:44.474Z,100435.59
2023-12-19T12:30:13.428Z,100427.84
2023-12-19T12:32:42.648Z,100436.63
2023-12-19T12:35:29.590Z,100432.28
2023-12-19T12:38:01.420Z,100421.88
2023-12-19T12:40:30.430Z,100415.78
2023-12-19T12:43:29.671Z,100409.81
2023-12-19T12:46:12.650Z,100402.09
2023-12-19T12:48:42.952Z,100400.34
2023-12-19T12:51:11.466Z,100400.44
2023-12-19T12:53:40.404Z,100397.84
2023-12-19T12:56:12.580Z,100395.28
2023-12-19T12:58:42.722Z,100388.34
2023-12-19T13:01:11.736Z,100374.44
2023-12-19T13:03:40.410Z,100362.28
2023-12-19T13:06:09.823Z,100361.56
2023-12-19T13:08:38.166Z,100364.16
2023-12-19T13:11:08.882Z,100359.00
2023-12-19T13:13:37.280Z,100360.81
2023-12-19T13:16:09.184Z,100353.91
2023-12-19T13:18:40.581Z,100343.50
2023-12-19T13:21:10.285Z,100347.06
2023-12-19T13:23:38.646Z,100340.13
2023-12-19T13:26:06.811Z,100347.16
2023-12-19T13:28:35.124Z,100338.56
2023-12-19T13:31:05.519Z,100336.91
2023-12-19T13:33:35.369Z,100330.03
2023-12-19T13:36:03.832Z,100336.19
2023-12-19T13:38:32.104Z,100330.19
2023-12-19T13:41:01.601Z,100322.41
2023-12-19T13:43:30.739Z,100324.19
2023-12-19T13:45:59.960Z,100318.22
2023-12-19T13:48:28.390Z,100310.41
2023-12-19T13:50:58.628Z,100314.78
2023-12-19T13:53:26.771Z,100320.94
2023-12-19T13:55:55.149Z,100310.53
2023-12-19T13:58:23.972Z,100306.19
2023-12-19T14:00:53.035Z,100311.50
2023-12-19T14:03:21.455Z,100308.03
2023-12-19T14:05:49.747Z,100309.84
2023-12-19T14:08:19.771Z,100316.81
2023-12-19T14:10:52.656Z,100298.56
2023-12-19T14:13:21.013Z,100299.53
2023-12-19T14:15:54.694Z,100294.34
2023-12-19T14:18:23.538Z,100294.44
2023-12-19T14:20:51.964Z,100286.69
2023-12-19T14:23:21.569Z,100298.88
2023-12-19T14:25:49.813Z,100291.13
2023-12-19T14:28:18.043Z,100288.56
2023-12-19T14:30:46.854Z,100289.47
2023-12-19T14:33:15.255Z,100288.63
2023-12-19T14:35:44.204Z,100281.78
2023-12-19T14:38:13.894Z,100280.94
2023-12-19T14:40:43.488Z,100274.06
2023-12-19T14:43:11.749Z,100276.75
2023-12-19T14:45:40.015Z,100269.84
2023-12-19T14:48:09.298Z,100252.44
2023-12-19T14:50:37.696Z,100260.25
2023-12-19T14:53:06.015Z,100255.94
2023-12-19T14:55:36.538Z,100240.28
2023-12-19T14:58:08.527Z,100254.19
2023-12-19T15:00:38.115Z,100248.22
2023-12-19T15:03:06.892Z,100243.91
2023-12-19T15:05:35.077Z,100251.78
2023-12-19T15:08:04.142Z,100237.94
2023-12-19T15:10:32.322Z,100242.22
2023-12-19T15:13:00.597Z,100238.81
2023-12-19T15:15:30.469Z,100237.09
2023-12-19T15:17:58.752Z,100246.69
2023-12-19T15:20:27.122Z,100224.13
2023-12-19T15:22:55.359Z,100232.81
2023-12-19T15:25:23.648Z,100217.19
2023-12-19T15:27:51.897Z,100220.75
2023-12-19T15:30:20.496Z,100215.53
2023-12-19T15:32:50.057Z,100212.97
2023-12-19T15:35:18.326Z,100209.47
2023-12-19T15:37:47.056Z,100202.59
2023-12-19T15:40:15.410Z,100212.19
2023-12-19T15:42:43.910Z,100212.25
2023-12-19T15:45:12.608Z,100188.84
2023-12-19T15:47:40.788Z,100203.66
2023-12-19T15:50:11.411Z,100189.00
2023-12-19T15:52:40.560Z,100201.19
2023-12-19T15:55:09.609Z,100176.91
2023-12-19T15:57:38.928Z,100178.66
2023-12-19T16:00:09.502Z,100182.22
2023-12-19T16:02:45.770Z,100173.56
2023-12-19T16:05:18.597Z,100173.63
2023-12-19T16:07:46.909Z,100169.28
2023-12-19T16:10:15.200Z,100167.63
2023-12-19T16:12:43.975Z,100181.63
2023-12-19T16:15:13.230Z,100163.38
2023-12-19T16:17:41.438Z,100156.47
2023-12-19T16:20:10.968Z,100150.41
2023-12-19T16:22:42.433Z,100159.97
2023-12-19T16:25:12.949Z,100133.03
2023-12-19T16:27:41.345Z,100143.53
2023-12-19T16:30:10.865Z,100148.75
2023-12-19T16:32:39.104Z,100141.88
2023-12-19T16:35:07.837Z,100130.59
2023-12-19T16:37:36.013Z,100128.94
2023-12-19T16:40:17.314Z,100124.53
2023-12-19T16:42:51.567Z,100117.66
2023-12-19T16:45:19.758Z,100128.97
2023-12-19T16:47:48.656Z,100129.88
2023-12-19T16:50:18.430Z,100129.03
2023-12-19T16:52:46.971Z,100122.09
2023-12-19T16:55:16.906Z,100119.53
2023-12-19T16:57:45.141Z,100126.53
2023-12-19T17:00:14.459Z,100117.81
2023-12-19T17:02:42.654Z,100122.22
2023-12-19T17:05:10.902Z,100119.66
2023-12-19T17:07:39.120Z,100117.03
2023-12-19T17:10:08.263Z,100115.31
2023-12-19T17:12:37.886Z,100112.75
2023-12-19T17:15:07.210Z,100116.22
2023-12-19T17:17:35.553Z,100111.00
2023-12-19T17:20:03.806Z,100115.31
2023-12-19T17:22:32.237Z,100117.91
2023-12-19T17:25:00.737Z,100108.31
2023-12-19T17:27:29.147Z,100119.66
2023-12-19T17:29:58.742Z,100117.03
2023-12-19T17:32:26.924Z,100119.66
2023-12-19T17:34:55.168Z,100111.00
2023-12-19T17:37:23.349Z,100099.66
2023-12-19T17:39:50.579Z,100099.63
2023-12-19T17:42:18.730Z,100091.78
2023-12-19T17:44:51.921Z,100100.44
2023-12-19T17:47:21.935Z,100099.63
2023-12-19T17:49:50.186Z,100101.34
2023-12-19T17:52:18.525Z,100111.72
2023-12-19T17:54:47.550Z,100102.16
2023-12-19T17:57:15.719Z,100102.16
2023-12-19T17:59:43.931Z,100095.22
2023-12-19T18:02:12.106Z,100095.22
2023-12-19T18:04:41.745Z,100093.44
2023-12-19T18:07:10.222Z,100107.31
2023-12-19T18:09:38.536Z,100101.22
2023-12-19T18:12:07.334Z,100104.69
2023-12-19T18:14:35.522Z,100099.38
2023-12-19T18:17:04.540Z,100095.03
2023-12-19T18:19:33.780Z,100099.38
2023-12-19T18:22:03.639Z,100095.13
2023-12-19T18:24:32.057Z,100102.09
2023-12-19T18:27:00.434Z,100105.63
2023-12-19T18:29:28.648Z,100109.91
2023-12-19T18:31:56.933Z,100114.31
2023-12-19T18:34:25.401Z,100110.00
2023-12-19T18:36:54.140Z,100106.50
2023-12-19T18:39:23.862Z,100112.59
2023-12-19T18:41:54.149Z,100113.44
2023-12-19T18:44:22.698Z,100115.22
2023-12-19T18:46:50.920Z,100112.53
2023-12-19T18:49:19.164Z,100122.09
2023-12-19T18:51:47.393Z,100119.53
2023-12-19T18:54:45.501Z,100125.66
2023-12-19T18:57:13.708Z,100120.38
2023-12-19T18:59:41.978Z,100125.66
2023-12-19T19:02:10.171Z,100129.97
2023-12-19T19:04:38.482Z,100118.59
2023-12-19T19:07:06.883Z,100129.03
2023-12-19T19:09:36.060Z,100131.56
2023-12-19T19:12:07.154Z,100134.25
2023-12-19T19:14:35.417Z,100124.66
2023-12-19T19:17:03.762Z,100125.56
2023-12-19T19:19:32.113Z,100116.09
2023-12-19T19:22:00.408Z,100117.00
2023-12-19T19:25:48.159Z,100118.81
2023-12-19T19:28:20.063Z,100114.44
2023-12-19T19:30:50.482Z,100111.88
2023-12-19T19:33:21.736Z,100119.75
2023-12-19T19:35:52.278Z,100113.72
2023-12-19T19:38:25.982Z,100122.47
2023-12-19T19:40:55.962Z,100116.31
2023-12-19T19:43:26.832Z,100115.38
2023-12-19T19:45:57.372Z,100116.25
2023-12-19T19:48:26.441Z,100114.53
2023-12-19T19:50:57.330Z,100106.69
2023-12-19T19:53:26.161Z,100105.00
2023-12-19T19:55:54.529Z,100098.88
2023-12-19T19:58:22.936Z,100105.88
2023-12-19T20:00:52.706Z,100106.69
2023-12-19T20:03:22.835Z,100103.28
2023-12-19T20:05:51.754Z,100107.63
2023-12-19T20:08:20.135Z,100112.84
2023-12-19T20:10:48.502Z,100106.75
2023-12-19T20:13:16.816Z,100096.38
2023-12-19T20:15:45.109Z,100101.59
2023-12-19T20:18:15.332Z,100111.13
2023-12-19T20:20:43.580Z,100106.81
2023-12-19T20:23:15.013Z,100106.81
2023-12-19T20:25:44.321Z,100103.38
2023-12-19T20:28:12.698Z,100112.97
2023-12-19T20:30:41.024Z,100110.34
2023-12-19T20:33:09.778Z,100117.41
2023-12-19T20:35:39.351Z,100115.69
2023-12-19T20:38:07.543Z,100118.41
2023-12-19T20:40:35.714Z,100121.81
2023-12-19T20:43:05.224Z,100122.75
2023-12-19T20:45:33.493Z,100126.16
2023-12-19T20:48:01.800Z,100131.34
2023-12-19T20:50:30.089Z,100126.16
2023-12-19T20:54:12.555Z,100128.84
2023-12-19T20:56:42.287Z,100131.47
2023-12-19T20:59:10.485Z,100129.72
2023-12-19T21:01:38.886Z,100135.00
2023-12-19T21:04:07.160Z,100133.28
2023-12-19T21:06:35.502Z,100132.41
2023-12-19T21:09:04.467Z,100128.84
2023-12-19T21:11:32.818Z,100128.75
2023-12-19T21:14:28.033Z,100119.19
2023-12-19T21:19:29.542Z,100122.78
2023-12-19T21:21:57.887Z,100118.50
2023-12-19T21:24:27.672Z,100123.72
2023-12-19T21:26:56.484Z,100121.97
2023-12-19T21:29:24.959Z,100131.56
2023-12-19T21:31:54.545Z,100122.84
2023-12-19T21:34:22.910Z,100122.91
2023-12-19T21:36:51.282Z,100126.31
2023-12-19T21:39:19.906Z,100124.59
2023-12-19T21:41:50.843Z,100124.59
2023-12-19T21:44:19.032Z,100126.41
2023-12-19T21:46:47.193Z,100119.38
2023-12-19T21:49:16.768Z,100119.44
2023-12-19T21:51:45.048Z,100116.84
2023-12-19T21:54:13.583Z,100115.94
2023-12-19T21:56:41.741Z,100102.84
2023-12-19T21:59:09.966Z,100110.72
2023-12-19T22:01:38.177Z,100107.28
2023-12-19T22:04:06.860Z,100111.63
2023-12-19T22:06:36.624Z,100102.06
2023-12-19T22:09:04.954Z,100099.44
2023-12-19T22:11:37.731Z,100099.50
2023-12-19T22:14:07.663Z,100092.50
2023-12-19T22:16:36.303Z,100099.50
2023-12-19T22:19:05.183Z,100100.38
2023-12-19T22:21:34.217Z,100101.28
2023-12-19T22:24:04.284Z,100107.38
2023-12-19T22:26:32.481Z,100097.84
2023-12-19T22:29:00.652Z,100086.50
2023-12-19T22:31:31.417Z,100087.41
2023-12-19T22:33:59.584Z,100082.19
2023-12-19T22:36:27.926Z,100090.00
2023-12-19T22:38:56.101Z,100087.41
2023-12-19T22:41:25.627Z,100087.41
2023-12-19T22:43:53.809Z,100084.78
2023-12-19T22:46:22.129Z,100078.72
2023-12-19T22:48:50.604Z,100076.09
2023-12-19T22:51:18.844Z,100077.88
2023-12-19T22:53:50.516Z,100073.50
2023-12-19T22:56:19.592Z,100070.03
2023-12-19T22:58:49.503Z,100080.47
2023-12-19T23:01:19.800Z,100088.38
2023-12-19T23:03:48.713Z,100089.25
2023-12-19T23:06:19.108Z,100088.38
2023-12-19T23:08:48.420Z,100083.09
2023-12-19T23:11:16.749Z,100080.47
2023-12-19T23:13:45.408Z,100082.28
2023-12-19T23:16:15.205Z,100078.72
2023-12-19T23:18:43.664Z,100082.19
2023-12-19T23:21:12.098Z,100076.03
2023-12-19T23:23:40.396Z,100076.09
2023-12-19T23:26:09.171Z,100080.47
2023-12-19T23:28:37.318Z,100080.47
2023-12-19T23:31:05.777Z,100079.59
2023-12-19T23:33:36.114Z,100081.34
2023-12-19T23:36:04.652Z,100083.94
2023-12-19T23:38:32.797Z,100087.41
2023-12-19T23:41:01.338Z,100083.06
2023-12-19T23:43:29.490Z,100082.19
2023-12-19T23:45:57.705Z,100089.16
2023-12-19T23:48:26.294Z,100087.41
2023-12-19T23:50:55.800Z,100090.00
2023-12-19T23:53:23.957Z,100090.81
2023-12-19T23:55:52.115Z,100095.16
2023-12-19T23:58:20.317Z,100085.50
